DW8453 Bekkjarvik NO current weather conditions

sailwx.info

Wind from 358 at 10 knots gusting 12

Air temperature 12.2° C
Dewpoint 7.1° C

Last reported at 2016-May-24 08:37 UTC.
Time now 2016-May-24 19:34 UTC

Location: N 60°01' E 005°12'.
View on Google Maps.

See reports from other nearby stations

  
Tides and Currents Weather Stations Pressure Air Temp Water Temp Dewpoint Dewpoint Depression Visibility Wind Speed Wind Dir Waves Ship Positions
date/time (UTC)wind fromknots sea level pressurealtimeterstation pressurevisibilityair tempwater tempwave heightnotes
2016-May-24 08:37 358 10 gusting 12 12.2
2016-May-24 08:32 325 8 gusting 12 12.2
2016-May-24 08:22 016 8 gusting 11 12.2
2016-May-24 08:17 357 6 gusting 12 12.2
2016-May-24 08:12 004 12 gusting 14 12.2
2016-May-24 08:07 12.2
2016-May-24 08:02 020 7 gusting 15 12.2
2016-May-24 07:57 339 8 gusting 10 12.2
2016-May-24 07:52 005 8 gusting 10 11.7
2016-May-24 07:47 009 6 gusting 10 11.7
2016-May-24 07:42 356 10 gusting 12 11.7
2016-May-24 07:37 041 6 gusting 11 11.1
2016-May-24 07:32 346 11 gusting 14 11.1
2016-May-24 07:27 341 11 gusting 13 11.1
2016-May-24 07:22 355 9 gusting 12 11.1
2016-May-24 07:17 036 6 gusting 12 11.1
2016-May-24 07:12 026 9 gusting 17 10.6
2016-May-24 07:07 334 7 gusting 13 10.6
2016-May-24 07:02 355 9 gusting 13 10.6
2016-May-24 06:57 356 9 gusting 14 10.6
2016-May-24 06:52 009 11 gusting 15 10.6
2016-May-24 06:47 356 8 gusting 18 10.6
2016-May-24 06:42 357 11 gusting 18 10.6
2016-May-24 06:37 10.0
2016-May-24 06:32 131 6 gusting 6 12.2
2016-May-24 06:27 355 6 gusting 12 10.0
2016-May-24 06:22 322 11 gusting 13 10.0
2016-May-24 06:12 333 6 gusting 8 10.0
2016-May-24 06:02 339 6 gusting 8 9.4
2016-May-24 05:57 9.4
2016-May-24 05:52 336 6 gusting 11 9.4
2016-May-24 05:47 024 9 gusting 13 8.9
2016-May-24 05:37 355 9 gusting 14 8.9
2016-May-24 05:32 355 8 gusting 13 8.3
2016-May-24 05:27 008 11 gusting 15 8.3
2016-May-24 05:22 346 11 gusting 13 8.3
2016-May-24 05:18 014 8 gusting 13 8.3
2016-May-24 05:12 338 7 gusting 13 8.3
2016-May-24 05:07 351 10 gusting 13 7.8
2016-May-24 04:57 344 11 gusting 13 7.8
2016-May-24 04:52 012 8 gusting 13 7.8
2016-May-24 04:47 334 6 gusting 13 7.8
2016-May-24 04:42 008 6 gusting 12 7.8
2016-May-24 04:37 011 9 gusting 13 7.8
2016-May-24 04:32 7.8
2016-May-24 04:27 346 7 gusting 11 7.8
2016-May-24 04:22 337 8 gusting 12 7.8
2016-May-24 04:17 340 7 gusting 12 7.8
2016-May-24 04:12 001 6 gusting 12 7.8
2016-May-24 04:07 344 6 gusting 13 7.8
2016-May-24 04:03 334 7 gusting 13 7.8
2016-May-24 03:52 357 4 gusting 13 7.8
2016-May-24 03:47 343 6 gusting 12 7.8
2016-May-24 03:42 324 7 gusting 11 7.8
2016-May-24 03:37 029 6 gusting 12 7.8
2016-May-24 03:32 029 8 gusting 13 7.8
2016-May-24 03:27 350 8 gusting 11 7.8
2016-May-24 03:22 356 10 gusting 14 7.8
2016-May-24 03:17 351 10 gusting 13 7.8
2016-May-24 03:07 358 7 gusting 11 7.8
2016-May-24 03:02 357 7 gusting 13 7.8
2016-May-24 02:57 005 8 gusting 12 7.8
2016-May-24 02:52 322 9 gusting 12 7.8
2016-May-24 02:47 008 7 gusting 10 7.8
2016-May-24 02:42 002 7 gusting 12 7.8
2016-May-24 02:22 350 6 gusting 12 7.8
2016-May-24 02:17 355 6 gusting 13 7.8
2016-May-24 02:07 339 7 gusting 11 7.8
2016-May-24 02:02 331 6 gusting 10 7.8
2016-May-24 01:57 312 8 gusting 13 7.8
2016-May-24 01:52 342 6 gusting 13 7.8
2016-May-24 01:42 326 8 gusting 13 7.8
2016-May-24 01:33 295 10 gusting 14 7.8
2016-May-24 01:27 334 11 gusting 13 7.8
2016-May-24 01:22 001 9 gusting 12 7.8
2016-May-24 01:17 004 11 gusting 13 7.8
2016-May-24 01:12 327 10 gusting 14 7.8
2016-May-24 01:07 351 10 gusting 13 7.8
2016-May-24 01:02 352 13 gusting 17 7.8
2016-May-24 00:57 329 9 gusting 12 7.8
2016-May-24 00:52 346 13 gusting 20 7.8
2016-May-24 00:47 316 10 gusting 14 7.8
2016-May-24 00:42 007 10 gusting 14 7.8
2016-May-24 00:37 337 10 gusting 13 8.3
2016-May-24 00:32 350 11 gusting 13 8.3
2016-May-24 00:27 354 12 gusting 18 8.3
2016-May-24 00:22 355 11 gusting 15 8.3
2016-May-24 00:12 333 12 gusting 14 7.8
2016-May-24 00:07 336 8 gusting 13 7.8
2016-May-24 00:02 347 8 gusting 12 7.8
2016-May-23 23:57 002 8 gusting 11 7.8
2016-May-23 23:52 341 11 gusting 13 8.3
2016-May-23 23:47 359 10 gusting 14 7.8
2016-May-23 23:42 335 8 gusting 13 8.3
2016-May-23 23:37 352 10 gusting 13 8.3
2016-May-23 23:32 001 12 gusting 14 8.3
2016-May-23 23:27 8.3
2016-May-23 23:22 353 11 gusting 15 8.3
2016-May-23 23:17 335 11 gusting 14 8.3
2016-May-23 23:12 323 12 gusting 17 8.3
2016-May-23 23:07 019 10 gusting 13 8.3
2016-May-23 23:02 345 8 gusting 13 8.3
2016-May-23 22:52 331 11 gusting 19 8.3
2016-May-23 22:47 343 11 gusting 15 8.3
2016-May-23 22:42 334 13 gusting 19 8.3
2016-May-23 22:37 317 10 gusting 15 8.3
2016-May-23 22:32 325 10 gusting 17 8.3
2016-May-23 22:27 010 10 gusting 15 8.3
2016-May-23 22:22 309 12 gusting 15 8.3
2016-May-23 22:17 338 11 gusting 15 8.3
2016-May-23 22:12 358 9 gusting 14 8.3
2016-May-23 22:07 343 12 gusting 18 8.3
2016-May-23 22:02 343 8 gusting 13 8.3
2016-May-23 21:57 332 10 gusting 13 8.3
2016-May-23 21:52 021 10 gusting 13 8.3
2016-May-23 21:48 352 9 gusting 14 8.3
2016-May-23 21:42 355 7 gusting 12 8.3
2016-May-23 21:37 354 8 gusting 13 8.3
2016-May-23 21:32 337 12 gusting 19 8.3
2016-May-23 21:22 224 11 gusting 13 8.3
2016-May-23 21:17 333 12 gusting 15 8.3
2016-May-23 21:12 315 12 gusting 14 8.3
2016-May-23 21:07 273 10 gusting 11 8.3
2016-May-23 21:02 334 10 gusting 12 8.9
2016-May-23 20:57 350 9 gusting 12 8.9
2016-May-23 20:47 348 12 gusting 13 8.9
2016-May-23 20:42 004 11 gusting 14 8.9
2016-May-23 20:37 333 6 gusting 11 8.9
2016-May-23 20:32 340 12 gusting 15 8.9
2016-May-23 20:27 001 8 gusting 10 9.4
2016-May-23 20:22 004 10 gusting 13 9.4
2016-May-23 20:17 338 12 gusting 13 9.4
2016-May-23 20:12 333 11 gusting 14 9.4
2016-May-23 20:07 315 13 gusting 17 9.4
2016-May-23 20:02 021 11 gusting 17 9.4
2016-May-23 19:57 316 12 gusting 15 9.4
2016-May-23 19:52 346 13 gusting 15 9.4
2016-May-23 19:47 026 13 gusting 15 10.0
2016-May-23 19:42 10.0
2016-May-23 19:37 10.0
2016-May-23 19:32 336 13 gusting 17 10.0
2016-May-23 19:27 315 15 gusting 17 10.0
2016-May-23 19:22 315 9 gusting 13 10.6
2016-May-23 19:17 352 12 gusting 14 10.6
2016-May-23 19:12 333 8 gusting 11 10.6
2016-May-23 19:07 240 8 gusting 11 10.6
2016-May-23 19:02 343 8 gusting 14 11.1
2016-May-23 18:57 034 11 gusting 14 11.1
2016-May-23 18:53 11.1
2016-May-23 18:47 342 11 gusting 15 11.1
2016-May-23 18:42 028 12 gusting 13 11.1
2016-May-23 18:37 343 10 gusting 15 11.1
2016-May-23 18:32 11.1
2016-May-23 18:27 329 11 gusting 17 11.1
2016-May-23 18:22 347 16 gusting 18 11.1
2016-May-23 18:17 11.7
2016-May-23 18:12 334 10 gusting 15 11.7
2016-May-23 18:07 353 12 gusting 18 11.7
2016-May-23 18:02 331 11 gusting 18 11.7
2016-May-23 17:57 343 14 gusting 19 11.7
2016-May-23 17:52 338 13 gusting 19 11.7
2016-May-23 17:42 025 13 gusting 19 11.7
2016-May-23 17:32 265 12 gusting 15 11.7
2016-May-23 17:27 328 12 gusting 13 12.2
2016-May-23 17:22 328 12 gusting 17 12.2
2016-May-23 17:17 352 9 gusting 17 12.8
2016-May-23 17:12 12.8
2016-May-23 17:02 012 11 gusting 13 12.8
2016-May-23 16:57 340 11 gusting 14 12.8
2016-May-23 16:52 349 11 gusting 15 13.3
2016-May-23 16:47 355 11 gusting 15 13.9
2016-May-23 16:42 338 10 gusting 17 13.9
2016-May-23 16:37 358 11 gusting 17 13.9
2016-May-23 16:32 346 10 gusting 15 13.3
2016-May-23 16:27 336 8 gusting 13 13.3
2016-May-23 16:22 312 9 gusting 14 13.3
2016-May-23 16:17 324 10 gusting 14 13.3
2016-May-23 16:12 322 8 gusting 17 13.3
2016-May-23 16:07 320 13 gusting 17 13.3
2016-May-23 16:02 284 11 gusting 13 13.9
2016-May-23 15:52 339 7 gusting 12 14.4
2016-May-23 15:47 331 9 gusting 14 14.4
2016-May-23 15:42 342 11 gusting 14 13.9
2016-May-23 15:37 339 8 gusting 13 13.9
2016-May-23 15:32 324 10 gusting 17 13.3
2016-May-23 15:27 306 15 gusting 18 13.3
2016-May-23 15:17 026 11 gusting 14 13.9
2016-May-23 15:07 322 11 gusting 13 14.4
2016-May-23 15:02 334 12 gusting 13 14.4
2016-May-23 14:57 328 10 gusting 13 13.9
2016-May-23 14:52 327 10 gusting 13 13.9
2016-May-23 14:47 311 11 gusting 13 13.9
2016-May-23 14:42 297 12 gusting 13 13.3
2016-May-23 14:37 310 12 gusting 17 13.3
2016-May-23 14:32 296 13 gusting 15 12.8
2016-May-23 14:27 317 13 gusting 17 12.8
2016-May-23 14:22 331 14 gusting 14 13.3
2016-May-23 14:17 319 13 gusting 13 13.3
2016-May-23 14:07 316 15 gusting 15 13.3
2016-May-23 14:02 347 11 gusting 15 13.3
2016-May-23 13:52 319 8 gusting 12 13.3
2016-May-23 13:47 351 10 gusting 15 13.3
2016-May-23 13:42 327 12 gusting 15 12.8
2016-May-23 13:37 327 13 gusting 15 12.8
2016-May-23 13:32 313 10 gusting 13 12.8
2016-May-23 13:27 301 13 gusting 14 12.8
2016-May-23 13:22 323 11 gusting 13 12.8
2016-May-23 13:17 333 15 gusting 17 12.8
2016-May-23 13:12 338 13 gusting 17 12.2
2016-May-23 13:07 319 14 gusting 17 12.2
2016-May-23 13:02 315 13 gusting 15 12.2
2016-May-23 12:57 276 11 gusting 15 12.2
2016-May-23 12:52 310 15 gusting 19 11.7
2016-May-23 12:47 343 14 gusting 15 11.7
2016-May-23 12:42 333 13 gusting 13 11.7
2016-May-23 12:37 310 11 gusting 13 11.7
2016-May-23 12:32 321 9 gusting 13 12.2
2016-May-23 12:22 319 11 gusting 14 11.7
2016-May-23 12:17 325 10 gusting 13 11.7
2016-May-23 12:12 315 12 gusting 13 11.7
2016-May-23 12:07 315 11 gusting 13 11.7
2016-May-23 11:57 319 10 gusting 14 11.7
2016-May-23 11:52 315 14 gusting 14 11.7
2016-May-23 11:47 333 11 gusting 13 11.7
2016-May-23 11:42 310 10 gusting 13 11.7
2016-May-23 11:37 295 11 gusting 12 11.7
2016-May-23 11:32 332 10 gusting 12 11.7
2016-May-23 11:27 348 8 gusting 13 11.7
2016-May-23 11:22 234 14 gusting 17 11.7
2016-May-23 11:17 322 15 gusting 17 11.7
2016-May-23 11:12 330 12 gusting 14 12.2
2016-May-23 11:07 340 6 gusting 11 12.2
2016-May-23 11:02 311 6 gusting 11 12.2
2016-May-23 10:57 015 7 gusting 11 12.2
2016-May-23 10:52 338 6 gusting 11 11.7
2016-May-23 10:47 322 7 gusting 7 11.7
2016-May-23 10:42 345 8 gusting 12 11.7
2016-May-23 10:37 355 11 gusting 13 11.7
2016-May-23 10:32 11.7
2016-May-23 10:27 014 12 gusting 14 11.7
2016-May-23 10:22 344 9 gusting 13 11.7
2016-May-23 10:17 297 6 gusting 8 11.7
2016-May-23 10:12 339 8 gusting 11 11.7
2016-May-23 10:07 316 7 gusting 12 11.7
2016-May-23 10:02 357 8 gusting 13 11.7
2016-May-23 09:57 355 8 gusting 10 11.7
2016-May-23 09:52 333 7 gusting 12 11.1
2016-May-23 09:47 355 8 gusting 12 11.1
2016-May-23 09:42 351 10 gusting 13 11.1
2016-May-23 09:37 337 8 gusting 10 11.1
2016-May-23 09:32 338 6 gusting 7 11.1
2016-May-23 09:27 355 6 gusting 11 11.1
2016-May-23 09:22 344 8 gusting 11 11.1
2016-May-23 09:17 339 7 gusting 11 11.1
2016-May-23 09:12 355 9 gusting 12 10.6
2016-May-23 09:07 333 13 gusting 13 10.6
2016-May-23 09:02 312 5 gusting 8 10.6
2016-May-23 08:57 017 6 gusting 11 10.6
2016-May-23 08:53 317 10 gusting 11 10.6
2016-May-23 08:47 345 10 gusting 13 10.6
2016-May-23 08:42 343 6 gusting 13 10.6
2016-May-23 08:37 354 11 gusting 14 10.6
2016-May-23 08:32 338 8 gusting 12 10.6
2016-May-23 08:27 353 12 gusting 15 10.6
2016-May-23 08:22 009 11 gusting 13 10.0
2016-May-23 08:17 355 8 gusting 11 10.0
2016-May-23 08:12 350 12 gusting 14 10.0
2016-May-23 08:07 335 11 gusting 14 10.0
2016-May-23 08:02 354 6 gusting 6 10.0
2016-May-23 07:57 355 8 gusting 13 10.0
2016-May-23 07:52 355 10 gusting 11 10.0
2016-May-23 07:47 327 10 gusting 13 10.0
2016-May-23 07:42 355 10 gusting 11 10.0
2016-May-23 07:37 273 8 gusting 10 10.0
2016-May-23 07:32 355 6 gusting 12 10.0
2016-May-23 07:27 321 6 gusting 8 10.0
2016-May-23 07:22 351 6 gusting 7 10.0
2016-May-23 07:17 315 8 gusting 8 9.4
2016-May-23 07:12 296 6 gusting 10 9.4
2016-May-23 07:07 003 7 gusting 11 9.4
2016-May-23 07:02 355 5 gusting 10 9.4
2016-May-23 06:57 011 7 gusting 10 9.4
2016-May-23 06:52 005 8 gusting 11 9.4
2016-May-23 06:47 250 6 gusting 8 9.4
2016-May-23 06:42 345 7 gusting 12 9.4
2016-May-23 06:37 006 11 gusting 12 9.4
2016-May-23 06:32 342 7 gusting 11 9.4
2016-May-23 06:27 353 7 gusting 12 9.4
2016-May-23 06:22 340 7 gusting 11 9.4
2016-May-23 06:17 312 6 gusting 12 9.4
2016-May-23 06:12 342 6 gusting 11 9.4
2016-May-23 06:07 334 7 gusting 11 9.4
2016-May-23 06:02 323 6 gusting 8 9.4
2016-May-23 05:57 322 7 gusting 10 9.4
2016-May-23 05:52 315 6 gusting 8 9.4
2016-May-23 05:47 327 6 gusting 8 9.4
2016-May-23 05:42 333 6 gusting 10 9.4
2016-May-23 05:37 345 4 gusting 6 9.4
2016-May-23 05:32 356 5 gusting 8 9.4
2016-May-23 05:27 9.4
2016-May-23 05:22 005 6 gusting 8 9.4
2016-May-23 05:17 352 6 gusting 8 9.4
2016-May-23 05:12 355 5 gusting 10 9.4
2016-May-23 05:07 011 6 gusting 11 8.9
2016-May-23 05:02 029 6 gusting 11 8.9
2016-May-23 04:57 324 7 gusting 11 8.9
2016-May-23 04:52 357 8 gusting 12 8.9
2016-May-23 04:47 324 7 gusting 12 8.9
2016-May-23 04:42 345 8 gusting 11 8.9
2016-May-23 04:37 350 6 gusting 11 8.9
2016-May-23 04:32 336 6 gusting 11 8.9
2016-May-23 04:27 334 8 gusting 12 8.9
2016-May-23 04:22 357 9 gusting 13 8.9
2016-May-23 04:17 8.9
2016-May-23 04:12 351 6 gusting 12 8.9
2016-May-23 04:07 355 8 gusting 12 8.9
2016-May-23 04:02 012 10 gusting 12 8.9
2016-May-23 03:57 358 7 gusting 12 8.9
2016-May-23 03:52 342 8 gusting 13 8.9
2016-May-23 03:47 003 6 gusting 10 8.9
2016-May-23 03:42 350 6 gusting 12 8.9
2016-May-23 03:37 332 5 gusting 11 8.9
2016-May-23 03:32 019 5 gusting 7 8.9
2016-May-23 03:27 016 6 gusting 8 8.9
2016-May-23 03:22 302 3 gusting 6 8.9
2016-May-23 03:17 355 6 gusting 7 8.9
2016-May-23 03:12 349 6 gusting 11 8.9
2016-May-23 03:07 350 6 gusting 8 8.9
2016-May-23 03:02 353 5 gusting 8 8.9
2016-May-23 02:57 326 4 gusting 6 8.9
2016-May-23 02:52 339 6 gusting 10 8.9
2016-May-23 02:48 301 5 gusting 7 9.4
2016-May-23 02:42 335 4 gusting 8 9.4
2016-May-23 02:37 303 4 gusting 5 9.4
2016-May-23 02:32 325 4 gusting 5 9.4
2016-May-23 02:27 337 4 gusting 6 9.4
2016-May-23 02:22 307 5 gusting 6 9.4
2016-May-23 02:17 335 4 gusting 5 9.4
2016-May-23 02:12 317 6 gusting 6 9.4
2016-May-23 02:07 328 4 gusting 6 9.4
2016-May-23 02:02 339 4 gusting 5 10.0
2016-May-23 01:57 313 2 gusting 6 10.0
2016-May-23 01:52 303 2 gusting 4 10.0
2016-May-23 01:48 326 3 gusting 6 10.0
2016-May-23 01:42 358 2 gusting 4 10.0
2016-May-23 01:37 335 1 gusting 4 10.0
2016-May-23 01:32 329 3 gusting 6 10.0
2016-May-23 01:27 348 2 gusting 5 10.0
2016-May-23 01:22 343 3 gusting 6 10.0
2016-May-23 01:17 345 4 gusting 6 10.0
2016-May-23 01:12 349 2 gusting 5 9.4
2016-May-23 01:07 316 2 gusting 5 9.4
2016-May-23 01:02 327 4 gusting 7 9.4
2016-May-23 00:57 342 5 gusting 6 9.4
2016-May-23 00:52 336 4 gusting 7 9.4
2016-May-23 00:47 004 5 gusting 7 10.0
2016-May-23 00:42 329 7 gusting 8 10.0
2016-May-23 00:37 357 3 gusting 6 10.0
2016-May-23 00:33 319 5 gusting 6 10.0
2016-May-23 00:27 318 5 gusting 6 10.0
2016-May-23 00:22 306 5 gusting 6 10.0
2016-May-23 00:17 315 5 gusting 8 10.0
2016-May-23 00:12 308 4 gusting 6 10.0
2016-May-23 00:07 309 4 gusting 5 10.0
2016-May-23 00:02 305 4 gusting 6 10.0
2016-May-22 23:57 302 5 gusting 6 10.0
2016-May-22 23:52 303 5 gusting 6 10.0
2016-May-22 23:47 310 4 gusting 6 10.0
2016-May-22 23:42 300 6 gusting 6 10.0
2016-May-22 23:37 274 5 gusting 6 10.0
2016-May-22 23:32 328 5 gusting 6 10.0
2016-May-22 23:27 288 4 gusting 6 10.6
2016-May-22 23:22 318 4 gusting 6 10.6
2016-May-22 23:17 303 4 gusting 4 10.6
2016-May-22 23:12 310 3 gusting 4 10.6
2016-May-22 23:07 325 2 gusting 2 10.6
2016-May-22 23:02 310 2 gusting 4 10.6
2016-May-22 22:57 306 2 gusting 4 10.6
2016-May-22 22:52 304 1 gusting 1 10.6
2016-May-22 22:47 302 1 gusting 2 10.6
2016-May-22 22:42 267 1 gusting 2 10.6
2016-May-22 22:37 306 0 gusting 1 10.6
2016-May-22 22:32 306 1 gusting 2 10.6
2016-May-22 22:27 293 1 gusting 1 10.6
2016-May-22 22:22 306 1 gusting 2 10.6
2016-May-22 22:17 281 1 gusting 4 10.6
2016-May-22 22:12 358 1 gusting 4 10.6
2016-May-22 22:07 312 1 gusting 4 10.6
2016-May-22 22:02 320 2 gusting 4 10.6
2016-May-22 21:57 356 1 gusting 4 10.6
2016-May-22 21:52 333 1 gusting 1 10.6
2016-May-22 21:47 320 1 gusting 5 10.6
2016-May-22 21:42 319 2 gusting 4 10.6
2016-May-22 21:37 329 2 gusting 4 10.6
2016-May-22 21:32 330 2 gusting 4 10.6
2016-May-22 21:27 323 2 gusting 5 10.6
2016-May-22 21:23 315 2 gusting 5 10.6
2016-May-22 21:17 333 2 gusting 5 10.6
2016-May-22 21:13 329 3 gusting 5 10.6
2016-May-22 21:07 310 2 gusting 4 10.6
2016-May-22 21:02 294 2 gusting 2 10.6
2016-May-22 20:57 325 2 gusting 4 10.6
2016-May-22 20:52 316 2 gusting 4 10.6
2016-May-22 20:47 331 2 gusting 6 10.6
2016-May-22 20:42 348 3 gusting 6 10.6
2016-May-22 20:37 346 1 gusting 6 10.6
2016-May-22 20:32 004 3 gusting 5 10.6
2016-May-22 20:27 351 2 gusting 5 10.6
2016-May-22 20:22 345 2 gusting 4 10.6
2016-May-22 20:18 329 1 gusting 4 10.6
2016-May-22 20:12 314 2 gusting 4 10.6
2016-May-22 20:07 319 2 gusting 4 10.6
2016-May-22 20:02 305 1 gusting 2 10.6
2016-May-22 19:57 340 2 gusting 5 10.6
2016-May-22 19:52 353 2 gusting 4 10.6
2016-May-22 19:47 340 2 gusting 5 10.6
2016-May-22 19:42 356 2 gusting 5 10.6
2016-May-22 19:37 349 2 gusting 5 10.6
2016-May-22 19:32 329 2 gusting 4 10.6
2016-May-22 19:27 324 4 gusting 6 10.6
2016-May-22 19:22 331 5 gusting 6 10.6
2016-May-22 19:17 297 4 gusting 6 10.6
2016-May-22 19:12 321 2 gusting 6 11.1
2016-May-22 19:07 319 5 gusting 6 11.1
2016-May-22 19:02 320 2 gusting 4 11.1